createdAt,value
2022-09-16T00:00:20.604Z,83.90
2022-09-16T00:02:47.852Z,83.89
2022-09-16T00:05:14.486Z,83.92
2022-09-16T00:07:40.850Z,83.87
2022-09-16T00:10:07.933Z,84.54
2022-09-16T00:12:34.338Z,84.69
2022-09-16T00:15:00.840Z,84.72
2022-09-16T00:17:28.476Z,85.07
2022-09-16T00:19:54.831Z,85.29
2022-09-16T00:22:21.557Z,84.67
2022-09-16T00:24:49.106Z,85.30
2022-09-16T00:27:15.557Z,85.17
2022-09-16T00:29:42.165Z,85.23
2022-09-16T00:32:08.610Z,85.08
2022-09-16T00:34:35.122Z,84.73
2022-09-16T00:37:03.291Z,84.61
2022-09-16T00:39:30.591Z,84.74
2022-09-16T00:41:56.987Z,84.48
2022-09-16T00:44:57.708Z,84.45
2022-09-16T00:47:31.185Z,84.22
2022-09-16T00:50:13.838Z,84.54
2022-09-16T00:52:41.480Z,84.52
2022-09-16T00:55:11.868Z,84.53
2022-09-16T00:57:40.321Z,84.71
2022-09-16T01:00:10.796Z,84.90
2022-09-16T01:02:37.423Z,85.11
2022-09-16T01:05:12.407Z,85.37
2022-09-16T01:07:47.385Z,85.46
2022-09-16T01:10:17.712Z,85.52
2022-09-16T01:12:48.119Z,85.42
2022-09-16T01:15:18.231Z,85.55
2022-09-16T01:18:12.626Z,85.47
2022-09-16T01:21:00.035Z,85.63
2022-09-16T01:23:53.809Z,85.39
2022-09-16T01:26:58.303Z,85.51
2022-09-16T01:29:33.827Z,85.27
2022-09-16T01:32:12.960Z,85.49
2022-09-16T01:34:58.308Z,85.28
2022-09-16T01:37:51.106Z,85.55
2022-09-16T01:40:29.258Z,84.96
2022-09-16T01:43:09.920Z,84.91
2022-09-16T01:46:07.518Z,85.01
2022-09-16T01:48:58.547Z,85.29
2022-09-16T01:52:00.927Z,84.96
2022-09-16T01:54:37.280Z,85.24
2022-09-16T01:57:17.751Z,85.42
2022-09-16T01:59:59.480Z,85.35
2022-09-16T02:02:44.059Z,85.48
2022-09-16T02:05:16.438Z,85.61
2022-09-16T02:07:50.931Z,85.67
2022-09-16T02:10:26.230Z,85.97
2022-09-16T02:12:55.919Z,85.82
2022-09-16T02:15:25.156Z,85.96
2022-09-16T02:17:59.772Z,85.83
2022-09-16T02:20:30.637Z,85.77
2022-09-16T02:23:06.927Z,85.90
2022-09-16T02:25:38.221Z,85.87
2022-09-16T02:28:12.983Z,86.16
2022-09-16T02:30:44.060Z,86.21
2022-09-16T02:33:13.443Z,86.55
2022-09-16T02:35:41.434Z,86.69
2022-09-16T02:38:14.820Z,86.50
2022-09-16T02:40:51.212Z,86.27
2022-09-16T02:43:17.970Z,86.26
2022-09-16T02:46:08.547Z,86.64
2022-09-16T02:48:43.222Z,86.37
2022-09-16T02:51:18.333Z,86.45
2022-09-16T02:54:05.065Z,86.42
2022-09-16T02:56:35.755Z,86.10
2022-09-16T02:59:05.828Z,86.52
2022-09-16T03:01:36.859Z,86.47
2022-09-16T03:04:04.445Z,86.43
2022-09-16T03:06:36.143Z,86.62
2022-09-16T03:09:06.754Z,86.29
2022-09-16T03:11:59.844Z,86.50
2022-09-16T03:15:03.914Z,86.69
2022-09-16T03:18:04.460Z,86.32
2022-09-16T03:20:51.646Z,86.49
2022-09-16T03:23:54.759Z,86.62
2022-09-16T03:26:52.273Z,86.56
2022-09-16T03:29:27.995Z,86.40
2022-09-16T03:32:06.624Z,86.65
2022-09-16T03:34:48.596Z,87.14
2022-09-16T03:37:19.151Z,86.95
2022-09-16T03:39:55.584Z,87.39
2022-09-16T03:42:22.644Z,87.18
2022-09-16T03:44:49.093Z,87.27
2022-09-16T03:47:16.789Z,87.21
2022-09-16T03:49:43.463Z,87.49
2022-09-16T03:52:10.700Z,86.95
2022-09-16T03:54:38.080Z,87.12
2022-09-16T03:57:05.642Z,86.82
2022-09-16T03:59:32.522Z,87.32
2022-09-16T04:01:58.980Z,87.00
2022-09-16T04:04:25.608Z,87.08
2022-09-16T04:06:52.175Z,87.09
2022-09-16T04:09:18.542Z,87.12
2022-09-16T04:11:45.191Z,87.40
2022-09-16T04:14:12.083Z,87.52
2022-09-16T04:16:41.769Z,87.17
2022-09-16T04:19:13.418Z,87.35
2022-09-16T04:21:40.473Z,87.65
2022-09-16T04:24:13.651Z,87.80
2022-09-16T04:26:41.321Z,87.63
2022-09-16T04:29:08.107Z,87.52
2022-09-16T04:31:34.657Z,87.30
2022-09-16T04:34:12.746Z,87.55
2022-09-16T04:36:39.820Z,87.37
2022-09-16T04:39:06.836Z,86.88
2022-09-16T04:41:33.416Z,86.62
2022-09-16T04:44:01.105Z,86.54
2022-09-16T04:46:32.564Z,86.42
2022-09-16T04:49:00.142Z,86.41
2022-09-16T04:51:28.422Z,86.22
2022-09-16T04:53:56.928Z,86.41
2022-09-16T04:56:25.996Z,86.21
2022-09-16T04:58:56.233Z,86.47
2022-09-16T05:01:28.328Z,86.25
2022-09-16T05:04:00.306Z,86.44
2022-09-16T05:06:32.364Z,86.65
2022-09-16T05:09:00.966Z,86.74
2022-09-16T05:11:29.452Z,86.69
2022-09-16T05:13:59.342Z,86.96
2022-09-16T05:16:26.225Z,86.68
2022-09-16T05:18:55.195Z,86.88
2022-09-16T05:21:23.930Z,87.04
2022-09-16T05:23:51.147Z,87.29
2022-09-16T05:26:23.479Z,87.25
2022-09-16T05:28:53.416Z,87.22
2022-09-16T05:31:23.019Z,87.05
2022-09-16T05:34:01.024Z,87.03
2022-09-16T05:36:29.996Z,86.89
2022-09-16T05:39:21.602Z,86.80
2022-09-16T05:41:43.823Z,86.82
2022-09-16T05:44:10.272Z,86.90
2022-09-16T05:46:37.127Z,86.87
2022-09-16T05:49:04.236Z,87.03
2022-09-16T05:51:31.386Z,87.23
2022-09-16T05:53:59.954Z,87.22
2022-09-16T05:56:30.031Z,86.70
2022-09-16T05:58:58.714Z,86.89
2022-09-16T06:01:31.204Z,86.62
2022-09-16T06:03:58.456Z,86.81
2022-09-16T06:06:26.312Z,86.82
2022-09-16T06:08:55.114Z,86.58
2022-09-16T06:11:22.517Z,86.98
2022-09-16T06:13:57.052Z,87.02
2022-09-16T06:16:28.598Z,86.77
2022-09-16T06:18:57.306Z,86.74
2022-09-16T06:21:24.284Z,86.74
2022-09-16T06:23:50.925Z,86.50
2022-09-16T06:26:23.129Z,86.71
2022-09-16T06:28:51.094Z,86.70
2022-09-16T06:31:25.537Z,86.75
2022-09-16T06:33:53.196Z,86.70
2022-09-16T06:36:22.308Z,86.58
2022-09-16T06:38:49.571Z,86.30
2022-09-16T06:41:17.523Z,86.17
2022-09-16T06:43:44.518Z,86.51
2022-09-16T06:46:16.670Z,86.52
2022-09-16T06:48:45.707Z,86.67
2022-09-16T06:51:15.904Z,86.72
2022-09-16T06:53:43.430Z,86.19
2022-09-16T06:56:12.623Z,81.27
2022-09-16T06:58:52.344Z,79.77
2022-09-16T07:01:21.596Z,76.63
2022-09-16T07:03:50.041Z,70.24
2022-09-16T07:06:17.884Z,66.94
2022-09-16T07:08:45.004Z,59.43
2022-09-16T07:11:15.658Z,52.28
2022-09-16T07:13:43.435Z,52.52
2022-09-16T07:16:13.776Z,56.17
2022-09-16T07:18:41.717Z,58.40
2022-09-16T07:21:15.176Z,54.86
2022-09-16T07:23:43.019Z,48.80
2022-09-16T07:26:15.736Z,47.72
2022-09-16T07:28:44.212Z,43.47
2022-09-16T07:31:12.633Z,39.23
2022-09-16T07:33:41.958Z,37.33
2022-09-16T07:36:10.950Z,35.75
2022-09-16T07:38:37.693Z,35.95
2022-09-16T07:41:18.425Z,37.22
2022-09-16T07:43:45.799Z,35.70
2022-09-16T07:46:14.258Z,34.73
2022-09-16T07:48:40.861Z,34.05
2022-09-16T07:51:19.293Z,33.14
2022-09-16T07:53:47.127Z,33.81
2022-09-16T07:56:18.966Z,35.89
2022-09-16T07:58:46.752Z,34.74
2022-09-16T08:01:15.291Z,41.81
2022-09-16T08:03:43.428Z,47.15
2022-09-16T08:06:15.313Z,50.20
2022-09-16T08:08:42.715Z,48.93
2022-09-16T08:11:09.675Z,49.47
2022-09-16T08:13:37.567Z,48.42
2022-09-16T08:16:07.156Z,50.46
2022-09-16T08:18:34.337Z,54.53
2022-09-16T08:21:11.853Z,55.38
2022-09-16T08:23:38.780Z,57.55
2022-09-16T08:26:08.639Z,59.35
2022-09-16T08:28:45.223Z,59.85
2022-09-16T08:31:18.718Z,60.87
2022-09-16T08:33:45.995Z,60.47
2022-09-16T08:36:18.037Z,59.90
2022-09-16T08:38:45.022Z,57.71
2022-09-16T08:41:36.170Z,60.58
2022-09-16T08:44:28.627Z,59.56
2022-09-16T08:46:59.513Z,54.49
2022-09-16T08:49:37.224Z,51.91
2022-09-16T08:52:23.524Z,50.74
2022-09-16T08:54:54.651Z,50.61
2022-09-16T08:57:24.593Z,49.32
2022-09-16T09:00:20.624Z,48.78
2022-09-16T09:02:55.953Z,46.16
2022-09-16T09:05:40.471Z,46.20
2022-09-16T09:08:21.608Z,45.80
2022-09-16T09:10:57.309Z,45.59
2022-09-16T09:13:42.023Z,44.66
2022-09-16T09:16:20.521Z,44.15
2022-09-16T09:19:00.575Z,45.37
2022-09-16T09:22:02.811Z,47.21
2022-09-16T09:25:02.923Z,48.60
2022-09-16T09:27:54.632Z,52.20
2022-09-16T09:30:24.019Z,52.36
2022-09-16T09:33:41.283Z,51.59
2022-09-16T09:36:20.058Z,47.44
2022-09-16T09:39:11.556Z,51.41
2022-09-16T09:41:46.678Z,53.01
2022-09-16T09:44:28.222Z,49.49
2022-09-16T09:47:00.875Z,50.48
2022-09-16T09:49:37.812Z,50.95
2022-09-16T09:52:39.776Z,51.92
2022-09-16T09:55:16.322Z,52.25
2022-09-16T09:58:05.504Z,53.37
2022-09-16T10:00:32.728Z,50.29
2022-09-16T10:03:06.792Z,51.70
2022-09-16T10:05:35.896Z,48.06
2022-09-16T10:08:07.252Z,48.08
2022-09-16T10:10:35.369Z,47.94
2022-09-16T10:13:13.119Z,49.16
2022-09-16T10:15:40.088Z,50.00
2022-09-16T10:18:29.820Z,50.25
2022-09-16T10:21:01.924Z,51.25
2022-09-16T10:23:30.253Z,52.70
2022-09-16T10:26:25.796Z,55.92
2022-09-16T10:29:02.791Z,57.64
2022-09-16T10:31:38.239Z,58.47
2022-09-16T10:34:13.393Z,59.41
2022-09-16T10:36:40.009Z,60.55
2022-09-16T10:39:06.632Z,62.15
2022-09-16T10:41:47.687Z,62.47
2022-09-16T10:44:28.391Z,61.00
2022-09-16T10:46:58.724Z,60.92
2022-09-16T10:49:33.228Z,61.72
2022-09-16T10:52:22.402Z,60.25
2022-09-16T10:54:49.842Z,60.21
2022-09-16T10:57:31.362Z,61.68
2022-09-16T11:00:14.377Z,60.97
2022-09-16T11:03:08.656Z,60.33
2022-09-16T11:06:03.244Z,61.11
2022-09-16T11:08:49.206Z,62.04
2022-09-16T11:11:45.644Z,61.12
2022-09-16T11:14:34.004Z,59.71
2022-09-16T11:17:12.328Z,58.72
2022-09-16T11:20:03.412Z,59.41
2022-09-16T11:23:23.726Z,60.90
2022-09-16T11:26:27.345Z,59.89
2022-09-16T11:28:59.715Z,57.96
2022-09-16T11:31:35.000Z,59.43
2022-09-16T11:34:05.872Z,58.91
2022-09-16T11:36:55.467Z,59.51
2022-09-16T11:39:31.896Z,59.81
2022-09-16T11:42:27.472Z,56.88
2022-09-16T11:45:18.647Z,57.66
2022-09-16T11:47:50.721Z,58.85
2022-09-16T11:50:42.211Z,59.98
2022-09-16T11:53:37.878Z,61.12
2022-09-16T11:56:20.804Z,63.04
2022-09-16T11:59:30.396Z,63.04
2022-09-16T12:02:13.891Z,64.46
2022-09-16T12:04:46.615Z,63.74
2022-09-16T12:07:25.042Z,62.22
2022-09-16T12:10:23.599Z,63.41
2022-09-16T12:12:57.321Z,61.43
2022-09-16T12:15:46.400Z,62.19
2022-09-16T12:18:27.608Z,62.87
2022-09-16T12:21:03.093Z,59.33
2022-09-16T12:23:34.805Z,60.20
2022-09-16T12:26:09.640Z,58.86
2022-09-16T12:28:42.884Z,60.56
2022-09-16T12:31:23.925Z,59.34
2022-09-16T12:34:11.149Z,58.52
2022-09-16T12:36:43.562Z,59.53
2022-09-16T12:39:12.577Z,59.58
2022-09-16T12:42:16.672Z,60.44
2022-09-16T12:44:56.999Z,60.50
2022-09-16T12:48:00.318Z,60.93
2022-09-16T12:50:50.923Z,62.66
2022-09-16T12:53:42.585Z,62.10
2022-09-16T12:56:42.359Z,62.42
2022-09-16T12:59:27.255Z,61.97
2022-09-16T13:02:03.499Z,61.97
2022-09-16T13:04:52.867Z,63.57
2022-09-16T13:07:24.488Z,60.44
2022-09-16T13:10:01.642Z,61.44
2022-09-16T13:12:39.643Z,63.36
2022-09-16T13:15:25.364Z,62.74
2022-09-16T13:17:53.230Z,64.07
2022-09-16T13:20:39.471Z,63.27
2022-09-16T13:23:18.268Z,62.86
2022-09-16T13:25:58.479Z,64.81
2022-09-16T13:28:38.639Z,64.04
2022-09-16T13:31:10.861Z,64.74
2022-09-16T13:33:38.698Z,64.39
2022-09-16T13:36:29.836Z,65.58
2022-09-16T13:38:59.775Z,64.37
2022-09-16T13:41:47.782Z,63.87
2022-09-16T13:44:39.175Z,64.40
2022-09-16T13:47:11.524Z,64.28
2022-09-16T13:49:57.197Z,62.99
2022-09-16T13:52:31.977Z,61.88
2022-09-16T13:55:11.078Z,61.11
2022-09-16T13:58:13.389Z,62.12
2022-09-16T14:00:54.973Z,62.06
2022-09-16T14:03:41.327Z,61.63
2022-09-16T14:06:41.420Z,62.26
2022-09-16T14:09:19.699Z,61.85
2022-09-16T14:11:49.769Z,61.51
2022-09-16T14:14:45.808Z,60.60
2022-09-16T14:17:16.165Z,60.14
2022-09-16T14:19:46.549Z,58.92
2022-09-16T14:22:19.969Z,58.92
2022-09-16T14:24:50.258Z,58.70
2022-09-16T14:27:29.322Z,57.51
2022-09-16T14:29:58.160Z,59.54
2022-09-16T14:32:26.984Z,59.07
2022-09-16T14:34:56.814Z,58.97
2022-09-16T14:37:26.341Z,58.65
2022-09-16T14:39:55.454Z,58.44
2022-09-16T14:42:23.328Z,58.55
2022-09-16T14:44:55.008Z,58.13
2022-09-16T14:47:39.667Z,57.88
2022-09-16T14:50:15.928Z,56.99
2022-09-16T14:52:53.655Z,56.40
2022-09-16T14:55:30.325Z,55.94
2022-09-16T14:58:00.075Z,55.29
2022-09-16T15:00:39.935Z,56.17
2022-09-16T15:03:42.828Z,56.03
2022-09-16T15:06:15.339Z,55.74
2022-09-16T15:08:48.434Z,55.42
2022-09-16T15:11:46.001Z,55.20
2022-09-16T15:14:07.900Z,55.00
2022-09-16T15:16:44.009Z,55.21
2022-09-16T15:19:21.498Z,55.02
2022-09-16T15:21:48.811Z,55.49
2022-09-16T15:24:20.038Z,55.42
2022-09-16T15:26:47.944Z,55.85
2022-09-16T15:29:23.283Z,56.41
2022-09-16T15:31:50.940Z,56.51
2022-09-16T15:34:23.240Z,56.37
2022-09-16T15:36:52.480Z,56.40
2022-09-16T15:39:26.214Z,56.12
2022-09-16T15:42:20.866Z,56.58
2022-09-16T15:44:50.163Z,56.47
2022-09-16T15:47:24.598Z,56.35
2022-09-16T15:50:00.177Z,56.38
2022-09-16T15:52:26.810Z,56.14
2022-09-16T15:54:59.431Z,56.69
2022-09-16T15:57:36.208Z,56.55
2022-09-16T16:00:16.157Z,57.10
2022-09-16T16:02:51.997Z,56.88
2022-09-16T16:05:21.768Z,56.70
2022-09-16T16:07:54.642Z,56.62
2022-09-16T16:10:31.134Z,56.46
2022-09-16T16:13:00.112Z,57.22
2022-09-16T16:15:39.125Z,56.67
2022-09-16T16:18:08.786Z,57.31
2022-09-16T16:20:38.013Z,57.39
2022-09-16T16:23:04.545Z,57.43
2022-09-16T16:25:43.389Z,57.23
2022-09-16T16:28:09.733Z,56.96
2022-09-16T16:30:40.433Z,57.31
2022-09-16T16:33:07.750Z,56.54
2022-09-16T16:35:34.415Z,56.17
2022-09-16T16:38:00.780Z,56.22
2022-09-16T16:40:27.385Z,57.15
2022-09-16T16:42:53.916Z,56.96
2022-09-16T16:45:21.075Z,57.38
2022-09-16T16:47:47.692Z,56.47
2022-09-16T16:50:14.870Z,57.15
2022-09-16T16:52:41.398Z,57.24
2022-09-16T16:55:08.169Z,57.47
2022-09-16T16:57:34.557Z,57.81
2022-09-16T17:00:01.215Z,58.58
2022-09-16T17:02:27.615Z,59.22
2022-09-16T17:04:54.019Z,59.46
2022-09-16T17:07:28.223Z,59.92
2022-09-16T17:09:57.546Z,60.50
2022-09-16T17:12:24.175Z,60.71
2022-09-16T17:14:50.551Z,61.11
2022-09-16T17:17:17.157Z,61.17
2022-09-16T17:19:43.939Z,61.41
2022-09-16T17:22:19.019Z,62.13
2022-09-16T17:25:08.270Z,62.22
2022-09-16T17:27:49.390Z,62.33
2022-09-16T17:30:31.071Z,63.70
2022-09-16T17:33:00.226Z,63.32
2022-09-16T17:35:29.058Z,62.85
2022-09-16T17:37:55.579Z,63.14
2022-09-16T17:40:22.036Z,63.89
2022-09-16T17:42:52.111Z,64.16
2022-09-16T17:45:21.882Z,64.45
2022-09-16T17:47:50.674Z,65.10
2022-09-16T17:50:22.735Z,64.91
2022-09-16T17:52:49.555Z,64.67
2022-09-16T17:55:16.388Z,64.88
2022-09-16T17:57:42.968Z,65.00
2022-09-16T18:00:10.382Z,64.71
2022-09-16T18:02:36.789Z,65.49
2022-09-16T18:05:08.889Z,65.83
2022-09-16T18:08:29.462Z,66.35
2022-09-16T18:10:30.816Z,66.48
2022-09-16T18:13:00.660Z,66.75
2022-09-16T18:15:28.178Z,67.45
2022-09-16T18:18:00.019Z,67.32
2022-09-16T18:20:28.713Z,67.81
2022-09-16T18:23:00.295Z,68.26
2022-09-16T18:25:26.816Z,68.31
2022-09-16T18:27:53.165Z,68.70
2022-09-16T18:30:19.699Z,68.87
2022-09-16T18:32:47.359Z,69.11
2022-09-16T18:35:13.946Z,69.62
2022-09-16T18:37:40.284Z,69.47
2022-09-16T18:40:07.565Z,69.11
2022-09-16T18:42:41.440Z,69.46
2022-09-16T18:45:08.349Z,69.30
2022-09-16T18:47:34.832Z,69.44
2022-09-16T18:50:01.412Z,69.08
2022-09-16T18:52:27.777Z,69.36
2022-09-16T18:54:54.212Z,69.01
2022-09-16T18:57:23.189Z,68.62
2022-09-16T18:59:49.540Z,69.15
2022-09-16T19:02:15.942Z,69.93
2022-09-16T19:04:43.135Z,70.55
2022-09-16T19:07:12.849Z,70.85
2022-09-16T19:09:40.139Z,71.28
2022-09-16T19:12:11.126Z,71.46
2022-09-16T19:14:47.255Z,71.20
2022-09-16T19:17:27.862Z,71.35
2022-09-16T19:20:08.437Z,70.81
2022-09-16T19:22:38.937Z,71.01
2022-09-16T19:25:05.716Z,71.56
2022-09-16T19:27:32.653Z,71.58
2022-09-16T19:29:59.091Z,71.74
2022-09-16T19:32:25.838Z,71.03
2022-09-16T19:34:52.472Z,71.04
2022-09-16T19:37:20.055Z,71.22
2022-09-16T19:39:48.146Z,70.82
2022-09-16T19:42:14.596Z,71.43
2022-09-16T19:44:41.157Z,71.42
2022-09-16T19:47:07.540Z,71.72
2022-09-16T19:49:33.977Z,71.52
2022-09-16T19:52:00.358Z,71.83
2022-09-16T19:54:26.731Z,71.66
2022-09-16T19:56:53.303Z,72.38
2022-09-16T19:59:20.449Z,73.43
2022-09-16T20:01:47.829Z,73.41
2022-09-16T20:04:19.163Z,73.83
2022-09-16T20:06:45.755Z,73.89
2022-09-16T20:09:12.995Z,74.06
2022-09-16T20:11:45.754Z,74.11
2022-09-16T20:14:19.897Z,74.33
2022-09-16T20:16:47.289Z,74.01
2022-09-16T20:19:15.778Z,74.36
2022-09-16T20:21:42.757Z,74.65
2022-09-16T20:24:14.807Z,74.73
2022-09-16T20:26:41.492Z,74.99
2022-09-16T20:29:07.869Z,74.66
2022-09-16T20:31:36.234Z,75.15
2022-09-16T20:34:04.399Z,74.82
2022-09-16T20:36:36.979Z,75.17
2022-09-16T20:39:04.616Z,75.72
2022-09-16T20:41:32.957Z,75.45
2022-09-16T20:44:00.202Z,75.16
2022-09-16T20:46:31.736Z,74.94
2022-09-16T20:49:01.748Z,74.99
2022-09-16T20:51:33.526Z,74.95
2022-09-16T20:54:12.893Z,74.91
2022-09-16T20:56:42.208Z,75.12
2022-09-16T20:59:10.664Z,75.09
2022-09-16T21:01:38.822Z,74.61
2022-09-16T21:04:07.921Z,74.49
2022-09-16T21:06:36.104Z,74.82
2022-09-16T21:09:06.306Z,74.99
2022-09-16T21:11:33.490Z,75.15
2022-09-16T21:14:03.089Z,75.09
2022-09-16T21:16:34.824Z,75.34
2022-09-16T21:19:03.945Z,75.71
2022-09-16T21:21:31.589Z,74.91
2022-09-16T21:24:00.382Z,75.20
2022-09-16T21:26:29.598Z,75.77
2022-09-16T21:29:01.136Z,76.30
2022-09-16T21:31:29.977Z,76.30
2022-09-16T21:33:58.060Z,76.25
2022-09-16T21:36:25.523Z,76.32
2022-09-16T21:38:52.257Z,76.47
2022-09-16T21:41:23.999Z,76.25
2022-09-16T21:43:55.382Z,76.32
2022-09-16T21:46:28.116Z,76.29
2022-09-16T21:49:08.443Z,76.38
2022-09-16T21:51:38.217Z,76.37
2022-09-16T21:54:07.123Z,76.33
2022-09-16T21:56:37.085Z,76.13
2022-09-16T21:59:03.507Z,76.44
2022-09-16T22:01:31.447Z,76.22
2022-09-16T22:04:00.503Z,76.17
2022-09-16T22:06:27.989Z,76.50
2022-09-16T22:08:56.188Z,76.40
2022-09-16T22:11:31.343Z,76.65
2022-09-16T22:14:00.500Z,76.40
2022-09-16T22:16:29.804Z,76.83
2022-09-16T22:19:01.885Z,77.06
2022-09-16T22:21:30.985Z,77.13
2022-09-16T22:23:59.252Z,77.26
2022-09-16T22:26:26.732Z,77.53
2022-09-16T22:28:53.661Z,77.61
2022-09-16T22:31:22.882Z,77.94
2022-09-16T22:33:51.465Z,77.91
2022-09-16T22:36:20.506Z,77.79
2022-09-16T22:38:48.439Z,77.97
2022-09-16T22:41:16.346Z,77.84
2022-09-16T22:43:44.702Z,77.84
2022-09-16T22:46:20.023Z,78.17
2022-09-16T22:48:47.464Z,78.06
2022-09-16T22:51:16.127Z,78.45
2022-09-16T22:53:43.818Z,78.25
2022-09-16T22:56:12.866Z,78.56
2022-09-16T22:58:39.520Z,78.59
2022-09-16T23:01:18.344Z,78.65
2022-09-16T23:03:46.412Z,78.47
2022-09-16T23:06:15.013Z,78.52
2022-09-16T23:08:43.408Z,78.95
2022-09-16T23:11:13.184Z,78.68
2022-09-16T23:13:44.526Z,78.65
2022-09-16T23:16:17.796Z,78.74
2022-09-16T23:18:53.591Z,78.30
2022-09-16T23:21:22.118Z,78.33
2022-09-16T23:23:50.893Z,78.08
2022-09-16T23:26:24.039Z,78.04
2022-09-16T23:28:52.728Z,78.15
2022-09-16T23:31:22.025Z,78.12
2022-09-16T23:33:48.641Z,78.29
2022-09-16T23:36:16.641Z,78.50
2022-09-16T23:38:43.904Z,78.30
2022-09-16T23:41:13.413Z,77.89
2022-09-16T23:43:41.593Z,77.80
2022-09-16T23:46:09.553Z,77.84
2022-09-16T23:48:36.177Z,78.21
2022-09-16T23:51:02.940Z,77.92
2022-09-16T23:53:29.600Z,78.16
2022-09-16T23:55:56.029Z,78.00
2022-09-16T23:58:22.821Z,78.02
